sensor_id;sensor_type;location;lat;lon;timestamp;temperature;humidity
921;DHT22;447;51.332;6.778;2023-06-14T00:01:45;29.20;41.40
921;DHT22;447;51.332;6.778;2023-06-14T00:04:12;29.20;41.40
921;DHT22;447;51.332;6.778;2023-06-14T00:06:42;29.20;41.40
921;DHT22;447;51.332;6.778;2023-06-14T00:09:13;29.20;41.50
921;DHT22;447;51.332;6.778;2023-06-14T00:11:41;29.10;41.50
921;DHT22;447;51.332;6.778;2023-06-14T00:14:07;29.10;41.50
921;DHT22;447;51.332;6.778;2023-06-14T00:16:33;29.10;41.50
921;DHT22;447;51.332;6.778;2023-06-14T00:19:04;29.10;41.60
921;DHT22;447;51.332;6.778;2023-06-14T00:21:31;29.10;41.60
921;DHT22;447;51.332;6.778;2023-06-14T00:24:01;29.00;41.50
921;DHT22;447;51.332;6.778;2023-06-14T00:26:30;29.00;41.60
921;DHT22;447;51.332;6.778;2023-06-14T00:28:56;28.90;41.60
921;DHT22;447;51.332;6.778;2023-06-14T00:31:23;28.90;41.60
921;DHT22;447;51.332;6.778;2023-06-14T00:33:49;28.90;41.70
921;DHT22;447;51.332;6.778;2023-06-14T00:36:15;28.90;41.70
921;DHT22;447;51.332;6.778;2023-06-14T00:38:42;28.90;41.80
921;DHT22;447;51.332;6.778;2023-06-14T00:41:10;28.90;41.90
921;DHT22;447;51.332;6.778;2023-06-14T00:43:36;28.80;41.80
921;DHT22;447;51.332;6.778;2023-06-14T00:46:02;28.80;42.00
921;DHT22;447;51.332;6.778;2023-06-14T00:48:30;28.80;42.00
921;DHT22;447;51.332;6.778;2023-06-14T00:50:58;28.80;42.00
921;DHT22;447;51.332;6.778;2023-06-14T00:53:30;28.70;42.00
921;DHT22;447;51.332;6.778;2023-06-14T00:56:02;28.70;42.10
921;DHT22;447;51.332;6.778;2023-06-14T00:58:28;28.70;42.20
921;DHT22;447;51.332;6.778;2023-06-14T01:00:54;28.60;42.10
921;DHT22;447;51.332;6.778;2023-06-14T01:03:20;28.60;42.20
921;DHT22;447;51.332;6.778;2023-06-14T01:08:51;28.60;42.40
921;DHT22;447;51.332;6.778;2023-06-14T01:14:10;28.50;42.40
921;DHT22;447;51.332;6.778;2023-06-14T01:16:38;28.50;42.50
921;DHT22;447;51.332;6.778;2023-06-14T01:19:05;28.50;42.50
921;DHT22;447;51.332;6.778;2023-06-14T01:21:35;28.40;42.60
921;DHT22;447;51.332;6.778;2023-06-14T01:24:09;28.40;42.60
921;DHT22;447;51.332;6.778;2023-06-14T01:26:37;28.40;42.70
921;DHT22;447;51.332;6.778;2023-06-14T01:29:04;28.40;42.80
921;DHT22;447;51.332;6.778;2023-06-14T01:31:32;28.30;42.80
921;DHT22;447;51.332;6.778;2023-06-14T01:34:07;28.30;42.80
921;DHT22;447;51.332;6.778;2023-06-14T01:36:36;28.30;42.80
921;DHT22;447;51.332;6.778;2023-06-14T01:39:05;28.30;42.90
921;DHT22;447;51.332;6.778;2023-06-14T01:41:32;28.20;42.90
921;DHT22;447;51.332;6.778;2023-06-14T01:44:00;28.20;42.90
921;DHT22;447;51.332;6.778;2023-06-14T01:46:32;28.20;43.00
921;DHT22;447;51.332;6.778;2023-06-14T01:49:01;28.20;43.10
921;DHT22;447;51.332;6.778;2023-06-14T01:51:27;28.20;43.10
921;DHT22;447;51.332;6.778;2023-06-14T01:53:56;28.10;43.10
921;DHT22;447;51.332;6.778;2023-06-14T01:56:23;28.10;43.10
921;DHT22;447;51.332;6.778;2023-06-14T01:58:54;28.10;43.20
921;DHT22;447;51.332;6.778;2023-06-14T02:01:22;28.10;43.20
921;DHT22;447;51.332;6.778;2023-06-14T02:03:51;28.10;43.20
921;DHT22;447;51.332;6.778;2023-06-14T02:06:21;28.10;43.30
921;DHT22;447;51.332;6.778;2023-06-14T02:08:47;28.00;43.20
921;DHT22;447;51.332;6.778;2023-06-14T02:11:16;28.00;43.20
921;DHT22;447;51.332;6.778;2023-06-14T02:13:44;28.00;43.30
921;DHT22;447;51.332;6.778;2023-06-14T02:16:11;28.00;43.30
921;DHT22;447;51.332;6.778;2023-06-14T02:18:40;27.90;43.30
921;DHT22;447;51.332;6.778;2023-06-14T02:21:08;27.90;43.30
921;DHT22;447;51.332;6.778;2023-06-14T02:23:34;27.90;43.30
921;DHT22;447;51.332;6.778;2023-06-14T02:26:02;27.90;43.30
921;DHT22;447;51.332;6.778;2023-06-14T02:28:31;27.90;43.40
921;DHT22;447;51.332;6.778;2023-06-14T02:30:57;27.90;43.40
921;DHT22;447;51.332;6.778;2023-06-14T02:33:24;27.80;43.30
921;DHT22;447;51.332;6.778;2023-06-14T02:35:52;27.80;43.30
921;DHT22;447;51.332;6.778;2023-06-14T02:38:18;27.80;43.40
921;DHT22;447;51.332;6.778;2023-06-14T02:40:44;27.80;43.40
921;DHT22;447;51.332;6.778;2023-06-14T02:43:10;27.80;43.40
921;DHT22;447;51.332;6.778;2023-06-14T02:45:40;27.70;43.40
921;DHT22;447;51.332;6.778;2023-06-14T02:48:06;27.70;43.40
921;DHT22;447;51.332;6.778;2023-06-14T02:50:32;27.70;43.40
921;DHT22;447;51.332;6.778;2023-06-14T02:52:58;27.70;44.00
921;DHT22;447;51.332;6.778;2023-06-14T02:55:24;27.70;43.40
921;DHT22;447;51.332;6.778;2023-06-14T02:57:52;27.60;43.40
921;DHT22;447;51.332;6.778;2023-06-14T03:00:21;27.60;43.50
921;DHT22;447;51.332;6.778;2023-06-14T03:02:49;27.60;43.40
921;DHT22;447;51.332;6.778;2023-06-14T03:05:19;27.60;43.40
921;DHT22;447;51.332;6.778;2023-06-14T03:07:51;27.50;43.40
921;DHT22;447;51.332;6.778;2023-06-14T03:10:19;27.50;43.40
921;DHT22;447;51.332;6.778;2023-06-14T03:12:50;27.50;43.50
921;DHT22;447;51.332;6.778;2023-06-14T03:15:18;27.50;43.50
921;DHT22;447;51.332;6.778;2023-06-14T03:17:47;27.40;43.50
921;DHT22;447;51.332;6.778;2023-06-14T03:20:18;27.40;43.50
921;DHT22;447;51.332;6.778;2023-06-14T03:22:46;27.40;43.50
921;DHT22;447;51.332;6.778;2023-06-14T03:25:14;27.40;43.50
921;DHT22;447;51.332;6.778;2023-06-14T03:27:47;27.40;43.60
921;DHT22;447;51.332;6.778;2023-06-14T03:30:13;27.30;43.60
921;DHT22;447;51.332;6.778;2023-06-14T03:32:40;27.30;43.60
921;DHT22;447;51.332;6.778;2023-06-14T03:35:07;27.30;43.60
921;DHT22;447;51.332;6.778;2023-06-14T03:37:33;27.30;43.60
921;DHT22;447;51.332;6.778;2023-06-14T03:40:02;27.30;43.60
921;DHT22;447;51.332;6.778;2023-06-14T03:42:33;27.30;43.70
921;DHT22;447;51.332;6.778;2023-06-14T03:44:58;27.30;43.70
921;DHT22;447;51.332;6.778;2023-06-14T03:47:28;27.20;43.70
921;DHT22;447;51.332;6.778;2023-06-14T03:49:55;27.20;43.70
921;DHT22;447;51.332;6.778;2023-06-14T03:52:27;27.20;43.70
921;DHT22;447;51.332;6.778;2023-06-14T03:54:53;27.20;43.80
921;DHT22;447;51.332;6.778;2023-06-14T03:57:23;27.10;43.70
921;DHT22;447;51.332;6.778;2023-06-14T03:59:49;27.10;43.80
921;DHT22;447;51.332;6.778;2023-06-14T04:02:18;27.10;43.80
921;DHT22;447;51.332;6.778;2023-06-14T04:04:44;27.10;43.80
921;DHT22;447;51.332;6.778;2023-06-14T04:07:14;27.10;43.90
921;DHT22;447;51.332;6.778;2023-06-14T04:09:41;27.00;43.80
921;DHT22;447;51.332;6.778;2023-06-14T04:12:09;27.10;43.90
921;DHT22;447;51.332;6.778;2023-06-14T04:14:40;27.00;43.90
921;DHT22;447;51.332;6.778;2023-06-14T04:17:08;27.00;43.90
921;DHT22;447;51.332;6.778;2023-06-14T04:19:41;27.00;44.00
921;DHT22;447;51.332;6.778;2023-06-14T04:22:11;27.00;44.00
921;DHT22;447;51.332;6.778;2023-06-14T04:24:39;27.00;44.00
921;DHT22;447;51.332;6.778;2023-06-14T04:27:08;26.90;44.00
921;DHT22;447;51.332;6.778;2023-06-14T04:29:36;26.90;44.10
921;DHT22;447;51.332;6.778;2023-06-14T04:32:06;26.90;44.10
921;DHT22;447;51.332;6.778;2023-06-14T04:34:38;26.90;44.20
921;DHT22;447;51.332;6.778;2023-06-14T04:37:10;26.90;44.30
921;DHT22;447;51.332;6.778;2023-06-14T04:39:41;26.80;44.20
921;DHT22;447;51.332;6.778;2023-06-14T04:42:12;26.80;44.30
921;DHT22;447;51.332;6.778;2023-06-14T04:44:41;26.80;44.30
921;DHT22;447;51.332;6.778;2023-06-14T04:47:10;26.80;44.40
921;DHT22;447;51.332;6.778;2023-06-14T04:49:44;26.80;44.40
921;DHT22;447;51.332;6.778;2023-06-14T04:52:10;26.70;44.40
921;DHT22;447;51.332;6.778;2023-06-14T04:54:43;26.70;44.40
921;DHT22;447;51.332;6.778;2023-06-14T04:57:09;26.70;44.40
921;DHT22;447;51.332;6.778;2023-06-14T04:59:44;26.70;44.50
921;DHT22;447;51.332;6.778;2023-06-14T05:02:15;26.70;44.50
921;DHT22;447;51.332;6.778;2023-06-14T05:04:45;26.70;44.50
921;DHT22;447;51.332;6.778;2023-06-14T05:07:13;26.70;44.50
921;DHT22;447;51.332;6.778;2023-06-14T05:09:41;26.60;44.50
921;DHT22;447;51.332;6.778;2023-06-14T05:12:10;26.60;44.50
921;DHT22;447;51.332;6.778;2023-06-14T05:14:39;26.60;44.50
921;DHT22;447;51.332;6.778;2023-06-14T05:17:06;26.60;44.60
921;DHT22;447;51.332;6.778;2023-06-14T05:19:33;26.60;44.60
921;DHT22;447;51.332;6.778;2023-06-14T05:22:01;26.60;44.60
921;DHT22;447;51.332;6.778;2023-06-14T05:24:28;26.60;44.70
921;DHT22;447;51.332;6.778;2023-06-14T05:26:56;26.60;44.70
921;DHT22;447;51.332;6.778;2023-06-14T05:29:25;26.60;44.70
921;DHT22;447;51.332;6.778;2023-06-14T05:31:51;26.50;44.70
921;DHT22;447;51.332;6.778;2023-06-14T05:34:17;26.60;44.80
921;DHT22;447;51.332;6.778;2023-06-14T05:36:43;26.50;44.70
921;DHT22;447;51.332;6.778;2023-06-14T05:39:09;26.50;44.30
921;DHT22;447;51.332;6.778;2023-06-14T05:41:38;26.40;44.40
921;DHT22;447;51.332;6.778;2023-06-14T05:44:04;26.40;44.60
921;DHT22;447;51.332;6.778;2023-06-14T05:46:30;26.40;44.70
921;DHT22;447;51.332;6.778;2023-06-14T05:49:01;26.30;44.70
921;DHT22;447;51.332;6.778;2023-06-14T05:51:27;26.30;44.80
921;DHT22;447;51.332;6.778;2023-06-14T05:53:53;26.30;44.90
921;DHT22;447;51.332;6.778;2023-06-14T05:56:19;26.30;44.90
921;DHT22;447;51.332;6.778;2023-06-14T05:58:45;26.30;44.90
921;DHT22;447;51.332;6.778;2023-06-14T06:01:14;26.30;44.90
921;DHT22;447;51.332;6.778;2023-06-14T06:03:48;26.30;44.90
921;DHT22;447;51.332;6.778;2023-06-14T06:06:17;26.30;45.00
921;DHT22;447;51.332;6.778;2023-06-14T06:08:43;26.30;45.00
921;DHT22;447;51.332;6.778;2023-06-14T06:11:11;26.30;45.00
921;DHT22;447;51.332;6.778;2023-06-14T06:13:40;26.30;45.00
921;DHT22;447;51.332;6.778;2023-06-14T06:16:09;26.30;45.00
921;DHT22;447;51.332;6.778;2023-06-14T06:18:42;26.30;45.10
921;DHT22;447;51.332;6.778;2023-06-14T06:21:10;26.20;45.00
921;DHT22;447;51.332;6.778;2023-06-14T06:23:36;26.20;45.00
921;DHT22;447;51.332;6.778;2023-06-14T06:26:02;26.20;45.10
921;DHT22;447;51.332;6.778;2023-06-14T06:28:31;26.20;45.10
921;DHT22;447;51.332;6.778;2023-06-14T06:30:59;26.20;45.10
921;DHT22;447;51.332;6.778;2023-06-14T06:33:28;26.20;45.10
921;DHT22;447;51.332;6.778;2023-06-14T06:35:55;26.20;45.10
921;DHT22;447;51.332;6.778;2023-06-14T06:38:25;26.20;45.20
921;DHT22;447;51.332;6.778;2023-06-14T06:40:51;26.20;45.20
921;DHT22;447;51.332;6.778;2023-06-14T06:43:24;26.20;45.20
921;DHT22;447;51.332;6.778;2023-06-14T06:45:52;26.20;45.20
921;DHT22;447;51.332;6.778;2023-06-14T06:48:18;26.20;45.20
921;DHT22;447;51.332;6.778;2023-06-14T06:50:44;26.20;45.20
921;DHT22;447;51.332;6.778;2023-06-14T06:53:10;26.20;45.20
921;DHT22;447;51.332;6.778;2023-06-14T06:55:38;26.20;45.20
921;DHT22;447;51.332;6.778;2023-06-14T06:58:04;26.20;45.10
921;DHT22;447;51.332;6.778;2023-06-14T07:00:31;26.20;45.10
921;DHT22;447;51.332;6.778;2023-06-14T07:02:57;26.20;45.10
921;DHT22;447;51.332;6.778;2023-06-14T07:05:25;26.20;45.10
921;DHT22;447;51.332;6.778;2023-06-14T07:07:51;26.20;45.00
921;DHT22;447;51.332;6.778;2023-06-14T07:10:18;26.20;45.00
921;DHT22;447;51.332;6.778;2023-06-14T07:12:47;26.20;45.00
921;DHT22;447;51.332;6.778;2023-06-14T07:15:15;26.20;45.00
921;DHT22;447;51.332;6.778;2023-06-14T07:17:43;26.30;45.10
921;DHT22;447;51.332;6.778;2023-06-14T07:20:09;26.20;45.00
921;DHT22;447;51.332;6.778;2023-06-14T07:22:42;26.20;44.90
921;DHT22;447;51.332;6.778;2023-06-14T07:25:11;26.20;44.90
921;DHT22;447;51.332;6.778;2023-06-14T07:27:42;26.30;45.00
921;DHT22;447;51.332;6.778;2023-06-14T07:30:11;26.20;44.80
921;DHT22;447;51.332;6.778;2023-06-14T07:32:39;26.30;44.90
921;DHT22;447;51.332;6.778;2023-06-14T07:35:06;26.30;44.90
921;DHT22;447;51.332;6.778;2023-06-14T07:37:36;26.30;44.80
921;DHT22;447;51.332;6.778;2023-06-14T07:40:03;26.30;44.70
921;DHT22;447;51.332;6.778;2023-06-14T07:42:34;26.30;44.70
921;DHT22;447;51.332;6.778;2023-06-14T07:45:03;26.30;44.70
921;DHT22;447;51.332;6.778;2023-06-14T07:47:29;26.30;44.60
921;DHT22;447;51.332;6.778;2023-06-14T07:49:58;26.30;44.60
921;DHT22;447;51.332;6.778;2023-06-14T07:52:26;26.30;44.60
921;DHT22;447;51.332;6.778;2023-06-14T07:54:58;26.30;44.60
921;DHT22;447;51.332;6.778;2023-06-14T07:57:26;26.30;44.50
921;DHT22;447;51.332;6.778;2023-06-14T07:59:52;26.30;44.50
921;DHT22;447;51.332;6.778;2023-06-14T08:02:21;26.40;44.60
921;DHT22;447;51.332;6.778;2023-06-14T08:04:51;26.40;44.50
921;DHT22;447;51.332;6.778;2023-06-14T08:07:18;26.40;44.50
921;DHT22;447;51.332;6.778;2023-06-14T08:09:46;26.40;44.50
921;DHT22;447;51.332;6.778;2023-06-14T08:12:14;26.40;44.50
921;DHT22;447;51.332;6.778;2023-06-14T08:14:42;26.40;44.50
921;DHT22;447;51.332;6.778;2023-06-14T08:17:08;26.40;44.50
921;DHT22;447;51.332;6.778;2023-06-14T08:19:37;26.50;44.40
921;DHT22;447;51.332;6.778;2023-06-14T08:22:03;26.50;44.40
921;DHT22;447;51.332;6.778;2023-06-14T08:24:32;26.50;44.40
921;DHT22;447;51.332;6.778;2023-06-14T08:27:01;26.50;44.40
921;DHT22;447;51.332;6.778;2023-06-14T08:29:27;26.50;44.30
921;DHT22;447;51.332;6.778;2023-06-14T08:31:57;26.60;44.30
921;DHT22;447;51.332;6.778;2023-06-14T08:34:23;26.60;44.30
921;DHT22;447;51.332;6.778;2023-06-14T08:36:52;26.60;44.30
921;DHT22;447;51.332;6.778;2023-06-14T08:39:21;26.60;44.20
921;DHT22;447;51.332;6.778;2023-06-14T08:41:48;26.60;44.20
921;DHT22;447;51.332;6.778;2023-06-14T08:44:16;26.60;44.20
921;DHT22;447;51.332;6.778;2023-06-14T08:46:45;26.60;44.10
921;DHT22;447;51.332;6.778;2023-06-14T08:49:16;26.60;44.10
921;DHT22;447;51.332;6.778;2023-06-14T08:51:45;26.70;44.30
921;DHT22;447;51.332;6.778;2023-06-14T08:54:14;26.70;44.30
921;DHT22;447;51.332;6.778;2023-06-14T08:56:43;26.70;44.30
921;DHT22;447;51.332;6.778;2023-06-14T08:59:09;26.80;44.30
921;DHT22;447;51.332;6.778;2023-06-14T09:01:36;26.80;44.30
921;DHT22;447;51.332;6.778;2023-06-14T09:04:03;26.80;44.20
921;DHT22;447;51.332;6.778;2023-06-14T09:06:31;26.80;44.30
921;DHT22;447;51.332;6.778;2023-06-14T09:09:00;26.80;44.10
921;DHT22;447;51.332;6.778;2023-06-14T09:11:32;26.90;44.20
921;DHT22;447;51.332;6.778;2023-06-14T09:13:58;26.90;44.10
921;DHT22;447;51.332;6.778;2023-06-14T09:16:25;26.90;44.00
921;DHT22;447;51.332;6.778;2023-06-14T09:18:54;26.90;44.00
921;DHT22;447;51.332;6.778;2023-06-14T09:21:22;27.00;43.30
921;DHT22;447;51.332;6.778;2023-06-14T09:23:48;27.00;42.00
921;DHT22;447;51.332;6.778;2023-06-14T09:26:16;26.90;42.20
921;DHT22;447;51.332;6.778;2023-06-14T09:28:49;26.80;43.00
921;DHT22;447;51.332;6.778;2023-06-14T09:31:17;26.80;43.10
921;DHT22;447;51.332;6.778;2023-06-14T09:33:48;26.80;43.20
921;DHT22;447;51.332;6.778;2023-06-14T09:36:24;26.90;43.40
921;DHT22;447;51.332;6.778;2023-06-14T09:38:58;26.80;43.30
921;DHT22;447;51.332;6.778;2023-06-14T09:41:40;26.90;43.40
921;DHT22;447;51.332;6.778;2023-06-14T09:44:10;26.90;43.40
921;DHT22;447;51.332;6.778;2023-06-14T09:46:39;26.90;43.40
921;DHT22;447;51.332;6.778;2023-06-14T09:49:08;27.00;43.40
921;DHT22;447;51.332;6.778;2023-06-14T09:51:35;27.00;43.30
921;DHT22;447;51.332;6.778;2023-06-14T09:54:05;27.00;43.30
921;DHT22;447;51.332;6.778;2023-06-14T09:56:45;27.00;43.30
921;DHT22;447;51.332;6.778;2023-06-14T09:59:12;27.10;43.30
921;DHT22;447;51.332;6.778;2023-06-14T10:01:42;27.10;43.10
921;DHT22;447;51.332;6.778;2023-06-14T10:04:09;27.20;43.20
921;DHT22;447;51.332;6.778;2023-06-14T10:06:45;27.20;43.20
921;DHT22;447;51.332;6.778;2023-06-14T10:09:12;27.30;43.20
921;DHT22;447;51.332;6.778;2023-06-14T10:11:38;27.30;43.20
921;DHT22;447;51.332;6.778;2023-06-14T10:14:10;27.30;43.10
921;DHT22;447;51.332;6.778;2023-06-14T10:16:52;27.30;43.70
921;DHT22;447;51.332;6.778;2023-06-14T10:19:54;27.40;43.00
921;DHT22;447;51.332;6.778;2023-06-14T10:22:38;27.40;42.90
921;DHT22;447;51.332;6.778;2023-06-14T10:25:12;27.40;43.00
921;DHT22;447;51.332;6.778;2023-06-14T10:27:39;27.50;43.00
921;DHT22;447;51.332;6.778;2023-06-14T10:30:14;27.50;43.10
921;DHT22;447;51.332;6.778;2023-06-14T10:33:05;27.50;43.00
921;DHT22;447;51.332;6.778;2023-06-14T10:35:34;27.60;43.00
921;DHT22;447;51.332;6.778;2023-06-14T10:38:11;27.60;42.90
921;DHT22;447;51.332;6.778;2023-06-14T10:40:40;27.60;42.80
921;DHT22;447;51.332;6.778;2023-06-14T10:43:22;27.70;42.90
921;DHT22;447;51.332;6.778;2023-06-14T10:46:12;27.70;42.80
921;DHT22;447;51.332;6.778;2023-06-14T10:48:43;27.70;42.70
921;DHT22;447;51.332;6.778;2023-06-14T10:51:20;27.80;42.70
921;DHT22;447;51.332;6.778;2023-06-14T10:53:50;27.80;42.70
921;DHT22;447;51.332;6.778;2023-06-14T10:56:25;27.90;42.80
921;DHT22;447;51.332;6.778;2023-06-14T10:58:54;27.90;42.70
921;DHT22;447;51.332;6.778;2023-06-14T11:01:32;27.90;42.70
921;DHT22;447;51.332;6.778;2023-06-14T11:04:10;27.90;42.50
921;DHT22;447;51.332;6.778;2023-06-14T11:06:49;28.00;42.60
921;DHT22;447;51.332;6.778;2023-06-14T11:12:09;28.00;42.30
921;DHT22;447;51.332;6.778;2023-06-14T11:14:36;28.10;42.20
921;DHT22;447;51.332;6.778;2023-06-14T11:17:05;28.10;42.30
921;DHT22;447;51.332;6.778;2023-06-14T11:19:31;28.10;42.40
921;DHT22;447;51.332;6.778;2023-06-14T11:22:01;28.20;42.20
921;DHT22;447;51.332;6.778;2023-06-14T11:24:27;28.20;41.80
921;DHT22;447;51.332;6.778;2023-06-14T11:26:56;28.20;42.20
921;DHT22;447;51.332;6.778;2023-06-14T11:29:22;28.20;42.20
921;DHT22;447;51.332;6.778;2023-06-14T11:31:51;28.30;42.20
921;DHT22;447;51.332;6.778;2023-06-14T11:34:20;28.30;42.30
921;DHT22;447;51.332;6.778;2023-06-14T11:36:46;28.30;42.20
921;DHT22;447;51.332;6.778;2023-06-14T11:39:13;28.40;42.20
921;DHT22;447;51.332;6.778;2023-06-14T11:41:44;28.40;42.10
921;DHT22;447;51.332;6.778;2023-06-14T11:44:15;28.40;42.10
921;DHT22;447;51.332;6.778;2023-06-14T11:46:41;28.40;42.20
921;DHT22;447;51.332;6.778;2023-06-14T11:49:07;28.50;42.20
921;DHT22;447;51.332;6.778;2023-06-14T11:51:34;28.50;42.00
921;DHT22;447;51.332;6.778;2023-06-14T11:54:02;28.50;42.00
921;DHT22;447;51.332;6.778;2023-06-14T11:56:30;28.60;42.00
921;DHT22;447;51.332;6.778;2023-06-14T11:58:57;28.60;42.10
921;DHT22;447;51.332;6.778;2023-06-14T12:01:24;28.60;42.00
921;DHT22;447;51.332;6.778;2023-06-14T12:03:53;28.60;42.00
921;DHT22;447;51.332;6.778;2023-06-14T12:06:29;28.70;42.00
921;DHT22;447;51.332;6.778;2023-06-14T12:08:58;28.70;42.00
921;DHT22;447;51.332;6.778;2023-06-14T12:11:31;28.70;42.00
921;DHT22;447;51.332;6.778;2023-06-14T12:13:57;28.80;42.20
921;DHT22;447;51.332;6.778;2023-06-14T12:16:30;28.80;42.20
921;DHT22;447;51.332;6.778;2023-06-14T12:19:17;28.80;42.20
921;DHT22;447;51.332;6.778;2023-06-14T12:21:46;28.80;42.10
921;DHT22;447;51.332;6.778;2023-06-14T12:24:14;28.80;42.00
921;DHT22;447;51.332;6.778;2023-06-14T12:26:42;28.90;42.20
921;DHT22;447;51.332;6.778;2023-06-14T12:29:12;28.90;42.10
921;DHT22;447;51.332;6.778;2023-06-14T12:31:43;28.90;42.00
921;DHT22;447;51.332;6.778;2023-06-14T12:34:13;28.90;42.10
921;DHT22;447;51.332;6.778;2023-06-14T12:36:39;29.00;42.20
921;DHT22;447;51.332;6.778;2023-06-14T12:39:09;29.00;42.10
921;DHT22;447;51.332;6.778;2023-06-14T12:41:36;29.00;42.10
921;DHT22;447;51.332;6.778;2023-06-14T12:44:02;29.00;41.90
921;DHT22;447;51.332;6.778;2023-06-14T12:46:34;29.10;42.10
921;DHT22;447;51.332;6.778;2023-06-14T12:49:00;29.10;42.00
921;DHT22;447;51.332;6.778;2023-06-14T12:51:26;29.10;42.10
921;DHT22;447;51.332;6.778;2023-06-14T12:53:54;29.20;42.10
921;DHT22;447;51.332;6.778;2023-06-14T12:56:23;29.20;41.90
921;DHT22;447;51.332;6.778;2023-06-14T12:58:49;29.20;41.90
921;DHT22;447;51.332;6.778;2023-06-14T13:01:15;29.20;42.00
921;DHT22;447;51.332;6.778;2023-06-14T13:03:43;29.30;42.00
921;DHT22;447;51.332;6.778;2023-06-14T13:06:09;29.30;41.90
921;DHT22;447;51.332;6.778;2023-06-14T13:08:39;29.30;41.80
921;DHT22;447;51.332;6.778;2023-06-14T13:11:05;29.30;41.80
921;DHT22;447;51.332;6.778;2023-06-14T13:13:36;29.40;42.00
921;DHT22;447;51.332;6.778;2023-06-14T13:16:02;29.40;42.00
921;DHT22;447;51.332;6.778;2023-06-14T13:18:30;29.40;41.90
921;DHT22;447;51.332;6.778;2023-06-14T13:20:56;29.50;42.00
921;DHT22;447;51.332;6.778;2023-06-14T13:23:24;29.50;41.80
921;DHT22;447;51.332;6.778;2023-06-14T13:25:50;29.50;41.80
921;DHT22;447;51.332;6.778;2023-06-14T13:28:17;29.50;41.70
921;DHT22;447;51.332;6.778;2023-06-14T13:30:43;29.50;41.70
921;DHT22;447;51.332;6.778;2023-06-14T13:33:12;29.60;41.80
921;DHT22;447;51.332;6.778;2023-06-14T13:35:40;29.60;41.80
921;DHT22;447;51.332;6.778;2023-06-14T13:38:06;29.60;41.70
921;DHT22;447;51.332;6.778;2023-06-14T13:40:33;29.70;41.80
921;DHT22;447;51.332;6.778;2023-06-14T13:42:59;29.70;41.80
921;DHT22;447;51.332;6.778;2023-06-14T13:45:27;29.70;42.00
921;DHT22;447;51.332;6.778;2023-06-14T13:47:54;29.80;41.80
921;DHT22;447;51.332;6.778;2023-06-14T13:50:22;29.80;41.90
921;DHT22;447;51.332;6.778;2023-06-14T13:52:50;29.80;41.60
921;DHT22;447;51.332;6.778;2023-06-14T13:55:18;29.90;41.70
921;DHT22;447;51.332;6.778;2023-06-14T13:57:44;29.90;41.90
921;DHT22;447;51.332;6.778;2023-06-14T14:00:12;29.90;41.70
921;DHT22;447;51.332;6.778;2023-06-14T14:02:41;29.90;41.60
921;DHT22;447;51.332;6.778;2023-06-14T14:05:09;30.00;41.60
921;DHT22;447;51.332;6.778;2023-06-14T14:07:37;30.00;41.60
921;DHT22;447;51.332;6.778;2023-06-14T14:10:10;30.00;41.80
921;DHT22;447;51.332;6.778;2023-06-14T14:12:41;30.00;41.60
921;DHT22;447;51.332;6.778;2023-06-14T14:15:07;30.10;41.70
921;DHT22;447;51.332;6.778;2023-06-14T14:17:40;30.10;41.60
921;DHT22;447;51.332;6.778;2023-06-14T14:20:10;30.10;41.20
921;DHT22;447;51.332;6.778;2023-06-14T14:22:40;30.20;41.40
921;DHT22;447;51.332;6.778;2023-06-14T14:25:09;30.20;41.30
921;DHT22;447;51.332;6.778;2023-06-14T14:27:37;30.20;41.50
921;DHT22;447;51.332;6.778;2023-06-14T14:30:04;30.20;41.20
921;DHT22;447;51.332;6.778;2023-06-14T14:32:32;30.30;41.40
921;DHT22;447;51.332;6.778;2023-06-14T14:34:58;30.30;41.40
921;DHT22;447;51.332;6.778;2023-06-14T14:37:24;30.30;41.20
921;DHT22;447;51.332;6.778;2023-06-14T14:39:50;30.30;41.10
921;DHT22;447;51.332;6.778;2023-06-14T14:42:16;30.40;41.20
921;DHT22;447;51.332;6.778;2023-06-14T14:44:42;30.40;42.00
921;DHT22;447;51.332;6.778;2023-06-14T14:47:10;30.40;41.20
921;DHT22;447;51.332;6.778;2023-06-14T14:49:38;30.40;40.90
921;DHT22;447;51.332;6.778;2023-06-14T14:52:07;30.50;41.00
921;DHT22;447;51.332;6.778;2023-06-14T14:54:35;30.50;41.60
921;DHT22;447;51.332;6.778;2023-06-14T14:57:03;30.60;40.90
921;DHT22;447;51.332;6.778;2023-06-14T14:59:32;30.60;40.90
921;DHT22;447;51.332;6.778;2023-06-14T15:02:02;30.60;40.70
921;DHT22;447;51.332;6.778;2023-06-14T15:04:30;30.60;40.50
921;DHT22;447;51.332;6.778;2023-06-14T15:06:57;30.70;40.80
921;DHT22;447;51.332;6.778;2023-06-14T15:09:23;30.70;41.00
921;DHT22;447;51.332;6.778;2023-06-14T15:11:49;30.70;40.80
921;DHT22;447;51.332;6.778;2023-06-14T15:14:15;30.70;40.60
921;DHT22;447;51.332;6.778;2023-06-14T15:16:43;30.80;40.40
921;DHT22;447;51.332;6.778;2023-06-14T15:19:10;30.80;40.40
921;DHT22;447;51.332;6.778;2023-06-14T15:21:36;30.80;40.50
921;DHT22;447;51.332;6.778;2023-06-14T15:24:01;30.90;40.30
921;DHT22;447;51.332;6.778;2023-06-14T15:26:30;30.90;40.40
921;DHT22;447;51.332;6.778;2023-06-14T15:28:58;31.00;40.40
921;DHT22;447;51.332;6.778;2023-06-14T15:31:24;31.00;40.50
921;DHT22;447;51.332;6.778;2023-06-14T15:33:53;31.00;40.30
921;DHT22;447;51.332;6.778;2023-06-14T15:36:22;31.00;40.60
921;DHT22;447;51.332;6.778;2023-06-14T15:38:50;31.10;40.70
921;DHT22;447;51.332;6.778;2023-06-14T15:41:16;31.10;40.50
921;DHT22;447;51.332;6.778;2023-06-14T15:43:45;31.10;40.40
921;DHT22;447;51.332;6.778;2023-06-14T15:46:13;31.20;40.40
921;DHT22;447;51.332;6.778;2023-06-14T15:48:40;31.20;39.90
921;DHT22;447;51.332;6.778;2023-06-14T15:51:08;31.20;40.20
921;DHT22;447;51.332;6.778;2023-06-14T15:53:34;31.30;40.00
921;DHT22;447;51.332;6.778;2023-06-14T15:56:03;31.30;40.00
921;DHT22;447;51.332;6.778;2023-06-14T15:58:29;31.40;40.00
921;DHT22;447;51.332;6.778;2023-06-14T16:00:55;31.40;39.80
921;DHT22;447;51.332;6.778;2023-06-14T16:03:26;31.40;39.80
921;DHT22;447;51.332;6.778;2023-06-14T16:05:58;31.50;39.60
921;DHT22;447;51.332;6.778;2023-06-14T16:08:24;31.50;39.60
921;DHT22;447;51.332;6.778;2023-06-14T16:10:53;31.50;40.00
921;DHT22;447;51.332;6.778;2023-06-14T16:13:18;31.60;39.10
921;DHT22;447;51.332;6.778;2023-06-14T16:15:44;31.50;37.10
921;DHT22;447;51.332;6.778;2023-06-14T16:18:10;31.50;37.20
921;DHT22;447;51.332;6.778;2023-06-14T16:20:38;31.30;36.50
921;DHT22;447;51.332;6.778;2023-06-14T16:23:04;31.20;36.00
921;DHT22;447;51.332;6.778;2023-06-14T16:25:33;31.10;36.40
921;DHT22;447;51.332;6.778;2023-06-14T16:28:01;31.00;37.70
921;DHT22;447;51.332;6.778;2023-06-14T16:30:29;30.90;37.60
921;DHT22;447;51.332;6.778;2023-06-14T16:32:58;31.00;38.00
921;DHT22;447;51.332;6.778;2023-06-14T16:35:26;31.00;38.20
921;DHT22;447;51.332;6.778;2023-06-14T16:37:59;31.10;38.20
921;DHT22;447;51.332;6.778;2023-06-14T16:40:25;31.20;38.50
921;DHT22;447;51.332;6.778;2023-06-14T16:42:51;31.20;38.20
921;DHT22;447;51.332;6.778;2023-06-14T16:45:17;31.40;39.30
921;DHT22;447;51.332;6.778;2023-06-14T16:47:48;31.40;38.30
921;DHT22;447;51.332;6.778;2023-06-14T16:50:16;31.50;38.50
921;DHT22;447;51.332;6.778;2023-06-14T16:52:44;31.60;36.60